createdAt,value
2023-02-24T00:01:54.590Z,10.32
2023-02-24T00:04:21.676Z,6.45
2023-02-24T00:06:49.072Z,15.45
2023-02-24T00:09:21.967Z,8.10
2023-02-24T00:12:02.391Z,7.43
2023-02-24T00:14:33.316Z,10.80
2023-02-24T00:17:00.895Z,12.63
2023-02-24T00:19:32.785Z,7.38
2023-02-24T00:22:01.418Z,7.13
2023-02-24T00:24:29.031Z,13.95
2023-02-24T00:26:59.613Z,14.32
2023-02-24T00:29:29.113Z,10.07
2023-02-24T00:32:01.431Z,20.13
2023-02-24T00:34:33.992Z,10.20
2023-02-24T00:37:02.067Z,14.15
2023-02-24T00:39:34.655Z,9.50
2023-02-24T00:42:06.386Z,14.18
2023-02-24T00:44:46.343Z,14.48
2023-02-24T00:47:19.050Z,8.50
2023-02-24T00:49:46.125Z,16.90
2023-02-24T00:52:16.029Z,6.43
2023-02-24T00:54:45.322Z,7.45
2023-02-24T00:57:13.312Z,6.28
2023-02-24T00:59:40.580Z,11.00
2023-02-24T01:02:07.794Z,9.93
2023-02-24T01:04:35.446Z,8.90
2023-02-24T01:07:02.424Z,8.88
2023-02-24T01:09:31.332Z,17.02
2023-02-24T01:12:21.999Z,12.15
2023-02-24T01:14:52.226Z,4.97
2023-02-24T01:17:21.881Z,9.48
2023-02-24T01:19:50.448Z,10.27
2023-02-24T01:22:19.901Z,6.68
2023-02-24T01:24:47.609Z,4.60
2023-02-24T01:27:19.935Z,19.80
2023-02-24T01:29:50.329Z,13.00
2023-02-24T01:32:21.054Z,9.75
2023-02-24T01:34:52.218Z,9.85
2023-02-24T01:37:20.328Z,12.55
2023-02-24T01:39:48.215Z,13.63
2023-02-24T01:42:19.827Z,4.18
2023-02-24T01:44:47.774Z,9.38
2023-02-24T01:47:18.553Z,9.40
2023-02-24T01:49:49.939Z,7.97
2023-02-24T01:52:19.077Z,9.57
2023-02-24T01:54:58.711Z,10.27
2023-02-24T01:57:31.355Z,18.05
2023-02-24T02:00:11.298Z,7.78
2023-02-24T02:02:46.588Z,11.75
2023-02-24T02:05:14.786Z,9.85
2023-02-24T02:07:43.587Z,10.45
2023-02-24T02:10:11.372Z,9.57
2023-02-24T02:12:45.239Z,11.98
2023-02-24T02:15:14.745Z,7.05
2023-02-24T02:18:28.595Z,7.97
2023-02-24T02:21:36.365Z,12.98
2023-02-24T02:24:13.213Z,12.13
2023-02-24T02:26:58.944Z,14.10
2023-02-24T02:29:48.602Z,8.88
2023-02-24T02:32:35.235Z,10.00
2023-02-24T02:35:19.037Z,12.10
2023-02-24T02:38:04.457Z,15.45
2023-02-24T02:40:42.574Z,11.98
2023-02-24T02:43:49.416Z,9.20
2023-02-24T02:46:34.972Z,14.30
2023-02-24T02:49:09.012Z,9.35
2023-02-24T02:51:45.941Z,13.52
2023-02-24T02:54:18.236Z,8.73
2023-02-24T02:57:13.118Z,15.40
2023-02-24T02:59:49.458Z,6.72
2023-02-24T03:02:21.433Z,5.45
2023-02-24T03:04:57.829Z,9.45
2023-02-24T03:07:31.390Z,12.13
2023-02-24T03:10:10.808Z,11.07
2023-02-24T03:12:41.085Z,7.50
2023-02-24T03:15:11.360Z,10.93
2023-02-24T03:17:43.508Z,9.88
2023-02-24T03:20:16.732Z,9.52
2023-02-24T03:22:56.082Z,13.85
2023-02-24T03:25:28.772Z,12.55
2023-02-24T03:28:04.004Z,13.98
2023-02-24T03:30:50.541Z,5.00
2023-02-24T03:33:39.030Z,8.02
2023-02-24T03:36:06.130Z,13.27
2023-02-24T03:38:38.400Z,9.80
2023-02-24T03:41:11.458Z,6.13
2023-02-24T03:43:46.821Z,6.68
2023-02-24T03:46:17.147Z,9.30
2023-02-24T03:48:53.966Z,11.70
2023-02-24T03:51:23.539Z,9.05
2023-02-24T03:53:56.304Z,13.95
2023-02-24T03:56:27.052Z,13.30
2023-02-24T03:59:28.027Z,8.48
2023-02-24T04:02:30.235Z,10.60
2023-02-24T04:05:15.676Z,9.38
2023-02-24T04:08:04.240Z,12.65
2023-02-24T04:10:41.233Z,13.48
2023-02-24T04:13:28.468Z,9.32
2023-02-24T04:16:08.388Z,8.32
2023-02-24T04:18:35.932Z,10.35
2023-02-24T04:21:05.588Z,6.75
2023-02-24T04:23:43.282Z,20.33
2023-02-24T04:26:16.044Z,9.15
2023-02-24T04:28:44.125Z,13.15
2023-02-24T04:31:17.658Z,11.27
2023-02-24T04:33:50.555Z,10.13
2023-02-24T04:36:22.411Z,8.57
2023-02-24T04:38:49.898Z,12.40
2023-02-24T04:41:21.604Z,9.50
2023-02-24T04:43:53.332Z,11.90
2023-02-24T04:46:20.606Z,17.45
2023-02-24T04:48:47.700Z,7.63
2023-02-24T04:51:14.718Z,7.60
2023-02-24T04:53:41.626Z,10.30
2023-02-24T04:56:10.045Z,19.63
2023-02-24T04:58:38.699Z,13.13
2023-02-24T05:01:11.021Z,14.38
2023-02-24T05:03:43.432Z,9.30
2023-02-24T05:06:16.616Z,7.05
2023-02-24T05:08:44.195Z,19.67
2023-02-24T05:11:19.405Z,8.77
2023-02-24T05:13:47.216Z,9.43
2023-02-24T05:16:17.005Z,14.93
2023-02-24T05:18:44.920Z,9.90
2023-02-24T05:21:33.404Z,10.40
2023-02-24T05:24:06.653Z,8.93
2023-02-24T05:26:37.141Z,12.68
2023-02-24T05:29:05.804Z,14.38
2023-02-24T05:31:33.098Z,19.15
2023-02-24T05:34:03.284Z,16.75
2023-02-24T05:36:35.268Z,6.65
2023-02-24T05:39:12.143Z,11.48
2023-02-24T05:41:42.204Z,10.60
2023-02-24T05:44:13.488Z,11.90
2023-02-24T05:46:44.727Z,12.18
2023-02-24T05:49:24.157Z,14.23
2023-02-24T05:51:54.983Z,16.77
2023-02-24T05:54:29.799Z,8.55
2023-02-24T05:57:01.579Z,13.80
2023-02-24T05:59:33.195Z,15.07
2023-02-24T06:02:07.605Z,17.83
2023-02-24T06:04:39.748Z,11.82
2023-02-24T06:07:34.415Z,20.50
2023-02-24T06:10:04.933Z,18.33
2023-02-24T06:12:34.726Z,12.65
2023-02-24T06:15:07.625Z,10.10
2023-02-24T06:17:34.898Z,10.75
2023-02-24T06:20:01.858Z,15.15
2023-02-24T06:22:28.880Z,8.30
2023-02-24T06:24:56.992Z,19.13
2023-02-24T06:27:25.229Z,9.32
2023-02-24T06:29:54.394Z,10.88
2023-02-24T06:32:24.430Z,11.40
2023-02-24T06:34:52.118Z,12.35
2023-02-24T06:37:19.030Z,16.15
2023-02-24T06:39:46.267Z,16.10
2023-02-24T06:42:13.462Z,8.50
2023-02-24T06:44:41.493Z,15.05
2023-02-24T06:47:11.623Z,9.77
2023-02-24T06:49:38.588Z,13.35
2023-02-24T06:52:06.037Z,9.65
2023-02-24T06:54:36.198Z,14.30
2023-02-24T06:57:04.271Z,8.45
2023-02-24T06:59:32.344Z,14.13
2023-02-24T07:02:03.530Z,7.38
2023-02-24T07:04:30.678Z,12.65
2023-02-24T07:07:03.407Z,10.57
2023-02-24T07:09:31.637Z,10.80
2023-02-24T07:12:02.668Z,13.30
2023-02-24T07:14:31.468Z,8.52
2023-02-24T07:16:59.747Z,11.30
2023-02-24T07:19:29.595Z,24.58
2023-02-24T07:22:02.416Z,9.52
2023-02-24T07:24:36.739Z,10.02
2023-02-24T07:27:06.655Z,13.48
2023-02-24T07:29:35.089Z,10.80
2023-02-24T07:32:05.906Z,12.10
2023-02-24T07:34:33.970Z,13.52
2023-02-24T07:37:08.440Z,8.98
2023-02-24T07:39:37.222Z,10.93
2023-02-24T07:42:05.038Z,16.02
2023-02-24T07:44:44.626Z,8.68
2023-02-24T07:47:11.737Z,10.82
2023-02-24T07:49:41.119Z,7.57
2023-02-24T07:52:08.776Z,7.32
2023-02-24T07:54:37.242Z,10.05
2023-02-24T07:57:06.298Z,11.50
2023-02-24T07:59:37.664Z,14.02
2023-02-24T08:02:07.829Z,10.75
2023-02-24T08:04:36.481Z,15.15
2023-02-24T08:07:04.362Z,14.50
2023-02-24T08:09:44.927Z,10.18
2023-02-24T08:12:18.387Z,8.18
2023-02-24T08:14:51.150Z,7.63
2023-02-24T08:17:26.611Z,19.30
2023-02-24T08:20:15.682Z,8.20
2023-02-24T08:22:46.837Z,14.30
2023-02-24T08:25:19.181Z,12.10
2023-02-24T08:28:06.852Z,14.50
2023-02-24T08:30:38.969Z,12.45
2023-02-24T08:33:09.247Z,8.65
2023-02-24T08:35:44.951Z,10.48
2023-02-24T08:38:16.662Z,16.35
2023-02-24T08:40:54.579Z,10.40
2023-02-24T08:43:33.034Z,9.48
2023-02-24T08:46:21.590Z,9.55
2023-02-24T08:48:55.614Z,11.88
2023-02-24T08:51:28.885Z,19.17
2023-02-24T08:54:02.309Z,11.55
2023-02-24T08:56:34.835Z,8.90
2023-02-24T08:59:07.798Z,17.00
2023-02-24T09:01:38.704Z,15.55
2023-02-24T09:04:09.480Z,15.18
2023-02-24T09:06:38.313Z,16.35
2023-02-24T09:09:18.139Z,14.50
2023-02-24T09:11:59.577Z,18.35
2023-02-24T09:14:39.405Z,8.32
2023-02-24T09:17:11.365Z,16.10
2023-02-24T09:19:46.431Z,14.00
2023-02-24T09:22:40.953Z,11.90
2023-02-24T09:25:40.686Z,10.68
2023-02-24T09:28:20.103Z,22.77
2023-02-24T09:30:56.441Z,12.02
2023-02-24T09:33:39.085Z,7.30
2023-02-24T09:36:13.022Z,11.88
2023-02-24T09:39:02.250Z,11.00
2023-02-24T09:42:18.135Z,8.30
2023-02-24T10:17:40.358Z,11.85
2023-02-24T10:20:39.561Z,12.35
2023-02-24T10:23:14.746Z,11.40
2023-02-24T10:25:56.244Z,17.48
2023-02-24T10:28:46.070Z,8.30
2023-02-24T10:31:25.797Z,18.50
2023-02-24T10:34:07.565Z,11.05
2023-02-24T10:36:35.945Z,11.48
2023-02-24T10:39:26.569Z,14.57
2023-02-24T10:41:59.263Z,17.55
2023-02-24T10:44:36.354Z,17.63
2023-02-24T10:47:13.384Z,14.27
2023-02-24T10:50:03.787Z,15.75
2023-02-24T10:52:51.112Z,17.52
2023-02-24T10:55:44.878Z,12.25
2023-02-24T10:58:38.224Z,13.90
2023-02-24T11:01:14.211Z,9.73
2023-02-24T11:04:01.171Z,18.45
2023-02-24T11:06:41.636Z,9.70
2023-02-24T11:09:29.706Z,9.65
2023-02-24T11:12:19.447Z,11.82
2023-02-24T11:15:17.999Z,16.67
2023-02-24T11:17:53.300Z,9.50
2023-02-24T11:20:48.460Z,11.80
2023-02-24T11:23:33.646Z,12.85
2023-02-24T11:26:12.107Z,12.57
2023-02-24T11:28:46.952Z,9.05
2023-02-24T11:31:23.339Z,20.30
2023-02-24T11:34:04.594Z,18.75
2023-02-24T11:37:04.649Z,16.45
2023-02-24T11:40:01.498Z,17.92
2023-02-24T11:42:46.262Z,15.48
2023-02-24T11:45:27.116Z,16.17
2023-02-24T11:48:04.838Z,13.23
2023-02-24T11:51:27.776Z,10.63
2023-02-24T11:54:05.937Z,10.65
2023-02-24T11:56:53.561Z,18.08
2023-02-24T11:59:37.051Z,16.35
2023-02-24T12:02:11.268Z,14.20
2023-02-24T12:05:02.931Z,21.75
2023-02-24T12:07:35.039Z,9.43
2023-02-24T12:10:16.076Z,12.10
2023-02-24T12:13:02.788Z,16.00
2023-02-24T12:15:50.899Z,16.42
2023-02-24T12:18:33.420Z,18.10
2023-02-24T12:21:30.728Z,14.57
2023-02-24T12:23:58.930Z,17.60
2023-02-24T12:27:08.669Z,14.02
2023-02-24T12:29:54.670Z,16.20
2023-02-24T12:32:57.750Z,19.10
2023-02-24T12:35:36.594Z,13.48
2023-02-24T12:38:46.019Z,11.90
2023-02-24T12:41:29.420Z,15.00
2023-02-24T12:44:22.990Z,6.63
2023-02-24T12:47:04.274Z,16.05
2023-02-24T12:49:40.400Z,16.05
2023-02-24T12:52:10.333Z,19.42
2023-02-24T12:55:02.796Z,10.55
2023-02-24T12:58:05.175Z,13.95
2023-02-24T13:00:45.220Z,8.73
2023-02-24T13:03:33.813Z,12.77
2023-02-24T13:06:10.013Z,12.85
2023-02-24T13:08:57.351Z,18.48
2023-02-24T13:11:43.059Z,13.00
2023-02-24T13:14:22.448Z,17.90
2023-02-24T13:16:49.474Z,12.15
2023-02-24T13:19:43.493Z,12.23
2023-02-24T13:22:13.190Z,20.13
2023-02-24T13:25:01.111Z,13.73
2023-02-24T13:27:32.139Z,17.00
2023-02-24T13:30:07.634Z,14.45
2023-02-24T13:32:36.529Z,16.85
2023-02-24T13:35:26.286Z,13.30
2023-02-24T13:37:54.653Z,14.20
2023-02-24T13:40:28.230Z,14.70
2023-02-24T13:42:58.373Z,9.55
2023-02-24T13:45:34.125Z,14.75
2023-02-24T13:48:07.222Z,10.60
2023-02-24T13:51:01.498Z,9.95
2023-02-24T13:53:59.629Z,12.43
2023-02-24T13:56:38.397Z,15.88
2023-02-24T13:59:16.833Z,11.38
2023-02-24T14:02:00.404Z,13.82
2023-02-24T14:04:36.072Z,12.85
2023-02-24T14:07:09.300Z,10.73
2023-02-24T14:09:47.354Z,10.93
2023-02-24T14:12:21.513Z,14.55
2023-02-24T14:14:50.124Z,17.63
2023-02-24T14:17:28.406Z,20.55
2023-02-24T14:20:06.962Z,17.90
2023-02-24T14:22:34.840Z,16.98
2023-02-24T14:25:03.409Z,13.05
2023-02-24T14:27:30.534Z,21.52
2023-02-24T14:29:57.937Z,25.67
2023-02-24T14:32:27.191Z,21.80
2023-02-24T14:34:55.217Z,16.15
2023-02-24T14:37:26.431Z,11.68
2023-02-24T14:39:59.290Z,12.88
2023-02-24T14:42:28.438Z,14.85
2023-02-24T14:44:58.363Z,20.67
2023-02-24T14:47:28.951Z,19.65
2023-02-24T14:50:02.629Z,22.38
2023-02-24T14:52:44.052Z,28.48
2023-02-24T14:55:16.686Z,23.30
2023-02-24T14:58:00.265Z,14.85
2023-02-24T15:00:33.085Z,12.10
2023-02-24T15:03:14.686Z,18.75
2023-02-24T15:05:48.784Z,18.58
2023-02-24T15:08:27.027Z,17.77
2023-02-24T15:10:54.201Z,15.48
2023-02-24T15:13:42.608Z,19.30
2023-02-24T15:16:15.228Z,18.58
2023-02-24T15:18:42.859Z,17.40
2023-02-24T15:21:21.201Z,18.70
2023-02-24T15:23:48.343Z,14.23
2023-02-24T15:26:35.356Z,11.90
2023-02-24T15:29:21.269Z,17.27
2023-02-24T15:31:50.222Z,18.95
2023-02-24T15:34:20.678Z,13.93
2023-02-24T15:36:48.684Z,16.17
2023-02-24T15:39:23.607Z,19.65
2023-02-24T15:41:52.554Z,13.52
2023-02-24T15:44:31.357Z,19.00
2023-02-24T15:47:00.891Z,16.73
2023-02-24T15:49:27.989Z,14.15
2023-02-24T15:51:59.780Z,21.27
2023-02-24T15:54:34.534Z,18.25
2023-02-24T15:57:02.697Z,21.23
2023-02-24T15:59:29.883Z,18.90
2023-02-24T16:01:57.584Z,18.83
2023-02-24T16:04:26.942Z,21.60
2023-02-24T16:06:56.642Z,21.63
2023-02-24T16:09:37.308Z,20.65
2023-02-24T16:12:10.837Z,15.65
2023-02-24T16:14:39.187Z,28.83
2023-02-24T16:17:17.425Z,23.42
2023-02-24T16:19:44.512Z,21.02
2023-02-24T16:22:11.661Z,12.70
2023-02-24T16:24:38.690Z,14.43
2023-02-24T16:27:06.351Z,16.65
2023-02-24T16:29:33.255Z,14.75
2023-02-24T16:32:00.475Z,17.02
2023-02-24T16:34:27.853Z,18.63
2023-02-24T16:36:54.822Z,15.45
2023-02-24T16:39:21.748Z,15.50
2023-02-24T16:41:48.801Z,15.45
2023-02-24T16:44:16.033Z,14.88
2023-02-24T16:46:45.396Z,17.90
2023-02-24T16:49:20.422Z,16.80
2023-02-24T16:51:47.487Z,25.40
2023-02-24T16:54:14.463Z,19.30
2023-02-24T16:56:41.606Z,17.33
2023-02-24T16:59:08.558Z,19.77
2023-02-24T17:01:35.557Z,14.57
2023-02-24T17:04:05.390Z,18.33
2023-02-24T17:06:32.501Z,14.55
2023-02-24T17:08:59.541Z,22.85
2023-02-24T17:11:29.010Z,23.27
2023-02-24T17:13:55.943Z,21.45
2023-02-24T17:16:23.260Z,14.73
2023-02-24T17:18:50.553Z,29.10
2023-02-24T17:21:18.310Z,21.83
2023-02-24T17:23:45.285Z,28.33
2023-02-24T17:26:15.697Z,43.30
2023-02-24T17:28:43.259Z,29.67
2023-02-24T17:31:10.359Z,33.53
2023-02-24T17:33:37.341Z,27.90
2023-02-24T17:36:04.455Z,30.10
2023-02-24T17:38:31.433Z,24.75
2023-02-24T17:40:58.412Z,30.20
2023-02-24T17:43:25.310Z,28.25
2023-02-24T17:45:53.082Z,21.02
2023-02-24T17:48:20.891Z,28.17
2023-02-24T17:50:48.797Z,22.48
2023-02-24T17:53:15.961Z,20.40
2023-02-24T17:56:01.002Z,16.83
2023-02-24T17:58:28.777Z,19.42
2023-02-24T18:00:55.838Z,21.52
2023-02-24T18:03:23.103Z,17.40
2023-02-24T18:05:58.921Z,17.30
2023-02-24T18:08:25.991Z,16.93
2023-02-24T18:10:53.216Z,17.67
2023-02-24T18:13:20.264Z,24.00
2023-02-24T18:15:47.243Z,16.73
2023-02-24T18:18:14.219Z,21.15
2023-02-24T18:20:44.773Z,22.27
2023-02-24T18:23:12.661Z,17.45
2023-02-24T18:25:40.086Z,19.50
2023-02-24T18:28:07.325Z,24.80
2023-02-24T18:30:34.416Z,17.33
2023-02-24T18:33:02.211Z,21.85
2023-02-24T18:35:30.627Z,28.27
2023-02-24T18:37:57.723Z,24.92
2023-02-24T18:40:28.866Z,22.73
2023-02-24T18:42:56.036Z,22.13
2023-02-24T18:45:23.600Z,24.52
2023-02-24T18:47:52.129Z,18.83
2023-02-24T18:50:19.314Z,17.98
2023-02-24T18:52:46.341Z,22.33
2023-02-24T18:55:13.293Z,20.00
2023-02-24T18:57:41.302Z,25.13
2023-02-24T19:00:09.636Z,29.35
2023-02-24T19:02:36.894Z,24.45
2023-02-24T19:05:03.888Z,19.88
2023-02-24T19:07:30.768Z,27.75
2023-02-24T19:09:57.662Z,25.88
2023-02-24T19:12:24.664Z,31.25
2023-02-24T19:14:52.648Z,24.70
2023-02-24T19:17:20.186Z,28.65
2023-02-24T19:19:47.127Z,24.83
2023-02-24T19:22:14.101Z,21.75
2023-02-24T19:24:41.125Z,29.30
2023-02-24T19:27:08.912Z,20.75
2023-02-24T19:29:35.973Z,27.20
2023-02-24T19:32:03.122Z,24.48
2023-02-24T19:34:30.157Z,19.58
2023-02-24T19:36:57.113Z,20.38
2023-02-24T19:39:23.986Z,26.38
2023-02-24T19:41:51.010Z,22.58
2023-02-24T19:44:18.013Z,18.95
2023-02-24T19:46:45.189Z,22.88
2023-02-24T19:49:12.137Z,21.65
2023-02-24T19:51:39.210Z,19.98
2023-02-24T19:54:06.503Z,24.95
2023-02-24T19:56:35.794Z,17.92
2023-02-24T19:59:05.028Z,16.75
2023-02-24T20:01:32.619Z,26.83
2023-02-24T20:04:01.796Z,35.83
2023-02-24T20:06:35.725Z,13.60
2023-02-24T20:09:09.041Z,13.55
2023-02-24T20:11:44.452Z,12.68
2023-02-24T20:14:12.757Z,14.10
2023-02-24T20:16:43.742Z,18.83
2023-02-24T20:19:13.260Z,16.98
2023-02-24T20:21:40.977Z,14.27
2023-02-24T20:24:13.403Z,21.58
2023-02-24T20:26:42.214Z,18.25
2023-02-24T20:29:09.643Z,21.88
2023-02-24T20:31:36.768Z,28.42
2023-02-24T20:34:06.068Z,17.90
2023-02-24T20:36:33.115Z,18.42
2023-02-24T20:39:00.287Z,21.55
2023-02-24T20:41:29.424Z,26.08
2023-02-24T20:43:56.511Z,16.45
2023-02-24T20:46:27.437Z,31.38
2023-02-24T20:49:02.961Z,21.45
2023-02-24T20:51:31.522Z,18.70
2023-02-24T20:53:58.856Z,18.35
2023-02-24T20:56:34.203Z,25.90
2023-02-24T20:59:06.798Z,30.33
2023-02-24T21:01:35.172Z,50.38
2023-02-24T21:04:03.129Z,45.50
2023-02-24T21:06:30.268Z,26.35
2023-02-24T21:08:58.417Z,24.83
2023-02-24T21:11:26.013Z,23.90
2023-02-24T21:13:53.596Z,22.02
2023-02-24T21:16:21.882Z,14.70
2023-02-24T21:18:51.573Z,17.27
2023-02-24T21:21:19.924Z,19.50
2023-02-24T21:23:47.911Z,14.02
2023-02-24T21:26:15.307Z,13.68
2023-02-24T21:28:42.329Z,18.83
2023-02-24T21:31:11.392Z,17.58
2023-02-24T21:33:38.637Z,12.50
2023-02-24T21:36:09.719Z,18.88
2023-02-24T21:38:37.713Z,18.77
2023-02-24T21:41:07.508Z,13.25
2023-02-24T21:43:34.611Z,13.25
2023-02-24T21:46:06.854Z,13.60
2023-02-24T21:48:34.167Z,17.30
2023-02-24T21:51:07.080Z,16.13
2023-02-24T21:53:35.906Z,21.55
2023-02-24T21:56:04.873Z,18.42
2023-02-24T21:58:33.122Z,17.02
2023-02-24T22:01:00.184Z,20.75
2023-02-24T22:03:28.132Z,16.70
2023-02-24T22:05:55.087Z,17.67
2023-02-24T22:08:22.234Z,16.80
2023-02-24T22:10:58.820Z,24.23
2023-02-24T22:15:53.136Z,20.38
2023-02-24T22:18:21.235Z,19.45
2023-02-24T22:20:48.321Z,25.30
2023-02-24T22:23:15.226Z,25.10
2023-02-24T22:25:42.098Z,17.85
2023-02-24T22:28:09.023Z,13.35
2023-02-24T22:30:36.200Z,21.02
2023-02-24T22:33:03.231Z,20.58
2023-02-24T22:35:30.146Z,22.58
2023-02-24T22:37:57.357Z,26.77
2023-02-24T22:40:24.343Z,23.50
2023-02-24T22:42:51.228Z,21.63
2023-02-24T22:45:18.243Z,17.58
2023-02-24T22:47:45.165Z,20.23
2023-02-24T22:50:12.287Z,18.77
2023-02-24T22:52:39.982Z,23.60
2023-02-24T22:55:07.487Z,20.17
2023-02-24T22:57:35.011Z,26.52
2023-02-24T23:00:02.018Z,20.20
2023-02-24T23:02:28.922Z,23.35
2023-02-24T23:04:57.447Z,18.30
2023-02-24T23:07:24.323Z,22.65
2023-02-24T23:09:53.142Z,18.88
2023-02-24T23:12:22.366Z,22.45
2023-02-24T23:14:49.353Z,20.20
2023-02-24T23:17:16.406Z,34.83
2023-02-24T23:19:43.301Z,15.10
2023-02-24T23:22:10.270Z,23.52
2023-02-24T23:24:37.259Z,27.25
2023-02-24T23:27:04.405Z,24.65
2023-02-24T23:29:31.327Z,20.67
2023-02-24T23:31:58.533Z,28.48
2023-02-24T23:34:25.773Z,24.35
2023-02-24T23:36:53.210Z,31.08
2023-02-24T23:39:23.650Z,27.70
2023-02-24T23:41:56.752Z,28.00
2023-02-24T23:44:24.049Z,26.65
2023-02-24T23:46:51.039Z,23.20
2023-02-24T23:49:17.957Z,24.58
2023-02-24T23:51:48.814Z,22.88
2023-02-24T23:54:19.284Z,22.25
2023-02-24T23:56:46.687Z,21.92
2023-02-24T23:59:14.529Z,31.77
